sensor_id;sensor_type;location;lat;lon;timestamp;P1;durP1;ratioP1;P2;durP2;ratioP2
6193;SDS011;3130;41.564;23.280;2024-02-23T00:00:11;18.30;;;13.20;;
6193;SDS011;3130;41.564;23.280;2024-02-23T00:02:38;15.17;;;11.90;;
6193;SDS011;3130;41.564;23.280;2024-02-23T00:05:05;15.63;;;12.50;;
6193;SDS011;3130;41.564;23.280;2024-02-23T00:07:32;18.47;;;12.90;;
6193;SDS011;3130;41.564;23.280;2024-02-23T00:10:01;20.60;;;14.00;;
6193;SDS011;3130;41.564;23.280;2024-02-23T00:12:28;21.93;;;13.33;;
6193;SDS011;3130;41.564;23.280;2024-02-23T00:14:55;24.50;;;14.83;;
6193;SDS011;3130;41.564;23.280;2024-02-23T00:17:22;18.30;;;13.73;;
6193;SDS011;3130;41.564;23.280;2024-02-23T00:19:49;18.33;;;13.00;;
6193;SDS011;3130;41.564;23.280;2024-02-23T00:22:18;19.43;;;13.70;;
6193;SDS011;3130;41.564;23.280;2024-02-23T00:24:44;17.47;;;12.93;;
6193;SDS011;3130;41.564;23.280;2024-02-23T00:27:13;22.17;;;13.63;;
6193;SDS011;3130;41.564;23.280;2024-02-23T00:29:40;21.50;;;14.50;;
6193;SDS011;3130;41.564;23.280;2024-02-23T00:32:07;21.00;;;13.87;;
6193;SDS011;3130;41.564;23.280;2024-02-23T00:34:34;21.13;;;14.17;;
6193;SDS011;3130;41.564;23.280;2024-02-23T00:37:02;23.30;;;15.23;;
6193;SDS011;3130;41.564;23.280;2024-02-23T00:39:29;18.37;;;13.03;;
6193;SDS011;3130;41.564;23.280;2024-02-23T00:41:57;21.00;;;14.20;;
6193;SDS011;3130;41.564;23.280;2024-02-23T00:44:25;20.40;;;14.53;;
6193;SDS011;3130;41.564;23.280;2024-02-23T00:46:52;20.10;;;14.90;;
6193;SDS011;3130;41.564;23.280;2024-02-23T00:49:19;22.30;;;13.30;;
6193;SDS011;3130;41.564;23.280;2024-02-23T00:51:46;20.07;;;14.77;;
6193;SDS011;3130;41.564;23.280;2024-02-23T00:54:13;23.70;;;14.60;;
6193;SDS011;3130;41.564;23.280;2024-02-23T00:56:40;21.87;;;14.30;;
6193;SDS011;3130;41.564;23.280;2024-02-23T00:59:06;21.87;;;15.50;;
6193;SDS011;3130;41.564;23.280;2024-02-23T01:01:35;20.70;;;15.80;;
6193;SDS011;3130;41.564;23.280;2024-02-23T01:04:02;20.23;;;14.90;;
6193;SDS011;3130;41.564;23.280;2024-02-23T01:06:29;21.17;;;14.60;;
6193;SDS011;3130;41.564;23.280;2024-02-23T01:08:56;19.77;;;14.40;;
6193;SDS011;3130;41.564;23.280;2024-02-23T01:11:23;20.40;;;13.63;;
6193;SDS011;3130;41.564;23.280;2024-02-23T01:13:50;17.40;;;13.87;;
6193;SDS011;3130;41.564;23.280;2024-02-23T01:16:17;24.17;;;14.93;;
6193;SDS011;3130;41.564;23.280;2024-02-23T01:18:46;19.17;;;14.53;;
6193;SDS011;3130;41.564;23.280;2024-02-23T01:21:13;20.20;;;14.27;;
6193;SDS011;3130;41.564;23.280;2024-02-23T01:23:40;19.07;;;13.97;;
6193;SDS011;3130;41.564;23.280;2024-02-23T01:26:07;16.63;;;12.83;;
6193;SDS011;3130;41.564;23.280;2024-02-23T01:28:34;20.07;;;13.43;;
6193;SDS011;3130;41.564;23.280;2024-02-23T01:31:01;18.93;;;13.13;;
6193;SDS011;3130;41.564;23.280;2024-02-23T01:33:29;19.97;;;14.17;;
6193;SDS011;3130;41.564;23.280;2024-02-23T01:35:58;21.17;;;13.80;;
6193;SDS011;3130;41.564;23.280;2024-02-23T01:38:24;18.50;;;13.53;;
6193;SDS011;3130;41.564;23.280;2024-02-23T01:40:56;19.00;;;13.10;;
6193;SDS011;3130;41.564;23.280;2024-02-23T01:43:23;18.00;;;13.33;;
6193;SDS011;3130;41.564;23.280;2024-02-23T01:45:49;20.87;;;13.00;;
6193;SDS011;3130;41.564;23.280;2024-02-23T01:48:17;17.33;;;12.73;;
6193;SDS011;3130;41.564;23.280;2024-02-23T01:50:44;19.63;;;13.27;;
6193;SDS011;3130;41.564;23.280;2024-02-23T01:53:12;18.33;;;13.23;;
6193;SDS011;3130;41.564;23.280;2024-02-23T01:55:40;17.77;;;13.67;;
6193;SDS011;3130;41.564;23.280;2024-02-23T01:58:07;17.83;;;13.07;;
6193;SDS011;3130;41.564;23.280;2024-02-23T02:00:34;17.13;;;12.77;;
6193;SDS011;3130;41.564;23.280;2024-02-23T02:03:01;18.33;;;13.07;;
6193;SDS011;3130;41.564;23.280;2024-02-23T02:05:28;17.90;;;12.60;;
6193;SDS011;3130;41.564;23.280;2024-02-23T02:07:55;19.93;;;14.03;;
6193;SDS011;3130;41.564;23.280;2024-02-23T02:10:25;17.63;;;12.30;;
6193;SDS011;3130;41.564;23.280;2024-02-23T02:12:52;17.00;;;11.27;;
6193;SDS011;3130;41.564;23.280;2024-02-23T02:15:20;16.60;;;12.43;;
6193;SDS011;3130;41.564;23.280;2024-02-23T02:17:47;16.90;;;12.37;;
6193;SDS011;3130;41.564;23.280;2024-02-23T02:20:14;16.43;;;12.17;;
6193;SDS011;3130;41.564;23.280;2024-02-23T02:22:41;16.43;;;12.03;;
6193;SDS011;3130;41.564;23.280;2024-02-23T02:25:08;18.73;;;13.57;;
6193;SDS011;3130;41.564;23.280;2024-02-23T02:27:36;15.27;;;12.87;;
6193;SDS011;3130;41.564;23.280;2024-02-23T02:30:03;17.27;;;11.47;;
6193;SDS011;3130;41.564;23.280;2024-02-23T02:32:30;18.23;;;11.20;;
6193;SDS011;3130;41.564;23.280;2024-02-23T02:34:57;15.77;;;12.00;;
6193;SDS011;3130;41.564;23.280;2024-02-23T02:37:24;17.00;;;10.97;;
6193;SDS011;3130;41.564;23.280;2024-02-23T02:39:51;18.30;;;13.30;;
6193;SDS011;3130;41.564;23.280;2024-02-23T02:42:17;19.17;;;12.60;;
6193;SDS011;3130;41.564;23.280;2024-02-23T02:44:46;16.30;;;12.07;;
6193;SDS011;3130;41.564;23.280;2024-02-23T02:47:13;17.17;;;12.43;;
6193;SDS011;3130;41.564;23.280;2024-02-23T02:49:40;16.40;;;12.47;;
6193;SDS011;3130;41.564;23.280;2024-02-23T02:52:07;18.13;;;12.00;;
6193;SDS011;3130;41.564;23.280;2024-02-23T02:54:34;17.90;;;12.80;;
6193;SDS011;3130;41.564;23.280;2024-02-23T02:57:01;16.03;;;12.67;;
6193;SDS011;3130;41.564;23.280;2024-02-23T02:59:28;20.37;;;12.90;;
6193;SDS011;3130;41.564;23.280;2024-02-23T03:01:58;16.43;;;11.77;;
6193;SDS011;3130;41.564;23.280;2024-02-23T03:04:25;16.03;;;12.47;;
6193;SDS011;3130;41.564;23.280;2024-02-23T03:06:52;17.90;;;13.00;;
6193;SDS011;3130;41.564;23.280;2024-02-23T03:09:19;18.17;;;13.30;;
6193;SDS011;3130;41.564;23.280;2024-02-23T03:11:45;17.33;;;11.53;;
6193;SDS011;3130;41.564;23.280;2024-02-23T03:14:12;17.97;;;12.50;;
6193;SDS011;3130;41.564;23.280;2024-02-23T03:16:39;17.57;;;11.67;;
6193;SDS011;3130;41.564;23.280;2024-02-23T03:19:08;20.13;;;12.43;;
6193;SDS011;3130;41.564;23.280;2024-02-23T03:21:35;17.77;;;11.33;;
6193;SDS011;3130;41.564;23.280;2024-02-23T03:24:02;14.97;;;11.27;;
6193;SDS011;3130;41.564;23.280;2024-02-23T03:26:29;18.10;;;11.43;;
6193;SDS011;3130;41.564;23.280;2024-02-23T03:28:56;17.77;;;12.73;;
6193;SDS011;3130;41.564;23.280;2024-02-23T03:31:23;16.83;;;12.23;;
6193;SDS011;3130;41.564;23.280;2024-02-23T03:33:50;16.70;;;12.20;;
6193;SDS011;3130;41.564;23.280;2024-02-23T03:36:18;18.30;;;12.67;;
6193;SDS011;3130;41.564;23.280;2024-02-23T03:38:46;15.70;;;11.23;;
6193;SDS011;3130;41.564;23.280;2024-02-23T03:41:14;15.03;;;10.90;;
6193;SDS011;3130;41.564;23.280;2024-02-23T03:43:41;14.43;;;10.60;;
6193;SDS011;3130;41.564;23.280;2024-02-23T03:46:08;13.83;;;10.90;;
6193;SDS011;3130;41.564;23.280;2024-02-23T03:48:37;16.37;;;11.17;;
6193;SDS011;3130;41.564;23.280;2024-02-23T03:51:04;16.27;;;11.87;;
6193;SDS011;3130;41.564;23.280;2024-02-23T03:53:32;16.57;;;11.17;;
6193;SDS011;3130;41.564;23.280;2024-02-23T03:55:59;17.70;;;13.43;;
6193;SDS011;3130;41.564;23.280;2024-02-23T03:58:27;15.37;;;11.30;;
6193;SDS011;3130;41.564;23.280;2024-02-23T04:00:54;14.83;;;11.60;;
6193;SDS011;3130;41.564;23.280;2024-02-23T04:03:21;17.93;;;13.13;;
6193;SDS011;3130;41.564;23.280;2024-02-23T04:05:48;15.40;;;11.07;;
6193;SDS011;3130;41.564;23.280;2024-02-23T04:08:15;17.97;;;11.87;;
6193;SDS011;3130;41.564;23.280;2024-02-23T04:10:44;16.40;;;11.50;;
6193;SDS011;3130;41.564;23.280;2024-02-23T04:13:11;14.70;;;10.87;;
6193;SDS011;3130;41.564;23.280;2024-02-23T04:15:39;15.80;;;10.80;;
6193;SDS011;3130;41.564;23.280;2024-02-23T04:18:07;17.67;;;11.53;;
6193;SDS011;3130;41.564;23.280;2024-02-23T04:20:34;14.93;;;11.43;;
6193;SDS011;3130;41.564;23.280;2024-02-23T04:23:02;16.53;;;12.50;;
6193;SDS011;3130;41.564;23.280;2024-02-23T04:25:29;20.93;;;11.33;;
6193;SDS011;3130;41.564;23.280;2024-02-23T04:27:57;19.43;;;12.47;;
6193;SDS011;3130;41.564;23.280;2024-02-23T04:30:25;17.23;;;12.37;;
6193;SDS011;3130;41.564;23.280;2024-02-23T04:32:52;14.57;;;10.80;;
6193;SDS011;3130;41.564;23.280;2024-02-23T04:35:19;15.03;;;11.33;;
6193;SDS011;3130;41.564;23.280;2024-02-23T04:37:46;14.60;;;11.50;;
6193;SDS011;3130;41.564;23.280;2024-02-23T04:40:14;16.03;;;11.90;;
6193;SDS011;3130;41.564;23.280;2024-02-23T04:42:43;13.80;;;10.17;;
6193;SDS011;3130;41.564;23.280;2024-02-23T04:45:12;14.80;;;11.27;;
6193;SDS011;3130;41.564;23.280;2024-02-23T04:47:40;13.57;;;10.13;;
6193;SDS011;3130;41.564;23.280;2024-02-23T04:50:08;18.03;;;11.50;;
6193;SDS011;3130;41.564;23.280;2024-02-23T04:52:35;17.30;;;12.23;;
6193;SDS011;3130;41.564;23.280;2024-02-23T04:55:03;15.73;;;10.40;;
6193;SDS011;3130;41.564;23.280;2024-02-23T04:57:31;15.93;;;10.67;;
6193;SDS011;3130;41.564;23.280;2024-02-23T04:59:58;15.83;;;10.37;;
6193;SDS011;3130;41.564;23.280;2024-02-23T05:02:26;13.90;;;10.20;;
6193;SDS011;3130;41.564;23.280;2024-02-23T05:05:00;13.30;;;10.73;;
6193;SDS011;3130;41.564;23.280;2024-02-23T05:07:27;18.13;;;11.20;;
6193;SDS011;3130;41.564;23.280;2024-02-23T05:09:54;16.70;;;10.77;;
6193;SDS011;3130;41.564;23.280;2024-02-23T05:12:22;16.73;;;11.17;;
6193;SDS011;3130;41.564;23.280;2024-02-23T05:14:49;15.50;;;11.17;;
6193;SDS011;3130;41.564;23.280;2024-02-23T05:17:16;15.50;;;10.40;;
6193;SDS011;3130;41.564;23.280;2024-02-23T05:19:45;14.63;;;11.33;;
6193;SDS011;3130;41.564;23.280;2024-02-23T05:22:13;14.97;;;11.07;;
6193;SDS011;3130;41.564;23.280;2024-02-23T05:24:40;20.63;;;13.47;;
6193;SDS011;3130;41.564;23.280;2024-02-23T05:27:07;18.40;;;12.93;;
6193;SDS011;3130;41.564;23.280;2024-02-23T05:29:35;19.43;;;12.80;;
6193;SDS011;3130;41.564;23.280;2024-02-23T05:32:02;19.70;;;11.63;;
6193;SDS011;3130;41.564;23.280;2024-02-23T05:34:29;16.83;;;11.50;;
6193;SDS011;3130;41.564;23.280;2024-02-23T05:36:58;15.73;;;12.07;;
6193;SDS011;3130;41.564;23.280;2024-02-23T05:39:25;12.93;;;10.53;;
6193;SDS011;3130;41.564;23.280;2024-02-23T05:41:54;16.77;;;11.53;;
6193;SDS011;3130;41.564;23.280;2024-02-23T05:44:22;17.90;;;11.80;;
6193;SDS011;3130;41.564;23.280;2024-02-23T05:46:50;17.47;;;11.77;;
6193;SDS011;3130;41.564;23.280;2024-02-23T05:49:18;14.90;;;11.20;;
6193;SDS011;3130;41.564;23.280;2024-02-23T05:51:45;16.63;;;11.43;;
6193;SDS011;3130;41.564;23.280;2024-02-23T05:54:14;15.40;;;11.10;;
6193;SDS011;3130;41.564;23.280;2024-02-23T05:56:41;17.40;;;12.27;;
6193;SDS011;3130;41.564;23.280;2024-02-23T05:59:11;17.53;;;11.63;;
6193;SDS011;3130;41.564;23.280;2024-02-23T06:01:38;16.03;;;10.33;;
6193;SDS011;3130;41.564;23.280;2024-02-23T06:04:06;16.50;;;12.13;;
6193;SDS011;3130;41.564;23.280;2024-02-23T06:06:33;12.97;;;10.37;;
6193;SDS011;3130;41.564;23.280;2024-02-23T06:09:00;14.90;;;10.63;;
6193;SDS011;3130;41.564;23.280;2024-02-23T06:11:29;13.17;;;9.87;;
6193;SDS011;3130;41.564;23.280;2024-02-23T06:13:56;13.17;;;9.57;;
6193;SDS011;3130;41.564;23.280;2024-02-23T06:16:23;23.67;;;11.87;;
6193;SDS011;3130;41.564;23.280;2024-02-23T06:18:50;16.40;;;11.27;;
6193;SDS011;3130;41.564;23.280;2024-02-23T06:21:18;14.90;;;11.13;;
6193;SDS011;3130;41.564;23.280;2024-02-23T06:23:48;16.83;;;10.43;;
6193;SDS011;3130;41.564;23.280;2024-02-23T06:26:15;13.30;;;10.70;;
6193;SDS011;3130;41.564;23.280;2024-02-23T06:28:44;15.00;;;10.20;;
6193;SDS011;3130;41.564;23.280;2024-02-23T06:31:12;14.50;;;11.20;;
6193;SDS011;3130;41.564;23.280;2024-02-23T06:33:39;15.50;;;10.43;;
6193;SDS011;3130;41.564;23.280;2024-02-23T06:36:07;18.13;;;11.57;;
6193;SDS011;3130;41.564;23.280;2024-02-23T06:38:39;16.80;;;10.43;;
6193;SDS011;3130;41.564;23.280;2024-02-23T06:41:06;13.63;;;12.00;;
6193;SDS011;3130;41.564;23.280;2024-02-23T06:43:36;15.57;;;10.67;;
6193;SDS011;3130;41.564;23.280;2024-02-23T06:46:05;14.67;;;10.80;;
6193;SDS011;3130;41.564;23.280;2024-02-23T06:48:32;13.83;;;10.50;;
6193;SDS011;3130;41.564;23.280;2024-02-23T06:51:00;16.70;;;10.57;;
6193;SDS011;3130;41.564;23.280;2024-02-23T06:53:37;16.77;;;11.87;;
6193;SDS011;3130;41.564;23.280;2024-02-23T06:56:07;14.83;;;11.20;;
6193;SDS011;3130;41.564;23.280;2024-02-23T06:58:49;14.33;;;10.20;;
6193;SDS011;3130;41.564;23.280;2024-02-23T07:01:19;18.97;;;14.13;;
6193;SDS011;3130;41.564;23.280;2024-02-23T07:04:05;16.93;;;12.53;;
6193;SDS011;3130;41.564;23.280;2024-02-23T07:06:32;16.40;;;11.67;;
6193;SDS011;3130;41.564;23.280;2024-02-23T07:09:01;15.33;;;10.87;;
6193;SDS011;3130;41.564;23.280;2024-02-23T07:11:30;15.23;;;11.93;;
6193;SDS011;3130;41.564;23.280;2024-02-23T07:13:57;27.00;;;17.37;;
6193;SDS011;3130;41.564;23.280;2024-02-23T07:16:31;47.03;;;29.97;;
6193;SDS011;3130;41.564;23.280;2024-02-23T07:19:02;59.67;;;40.33;;
6193;SDS011;3130;41.564;23.280;2024-02-23T07:21:33;63.27;;;43.10;;
6193;SDS011;3130;41.564;23.280;2024-02-23T07:24:03;53.73;;;39.70;;
6193;SDS011;3130;41.564;23.280;2024-02-23T07:26:35;52.23;;;39.43;;
6193;SDS011;3130;41.564;23.280;2024-02-23T07:29:02;63.13;;;41.57;;
6193;SDS011;3130;41.564;23.280;2024-02-23T07:31:32;65.50;;;45.10;;
6193;SDS011;3130;41.564;23.280;2024-02-23T07:33:59;69.30;;;45.97;;
6193;SDS011;3130;41.564;23.280;2024-02-23T07:36:27;52.40;;;40.53;;
6193;SDS011;3130;41.564;23.280;2024-02-23T07:38:55;53.30;;;40.83;;
6193;SDS011;3130;41.564;23.280;2024-02-23T07:41:23;47.70;;;34.77;;
6193;SDS011;3130;41.564;23.280;2024-02-23T07:43:50;46.53;;;36.00;;
6193;SDS011;3130;41.564;23.280;2024-02-23T07:46:17;51.40;;;38.13;;
6193;SDS011;3130;41.564;23.280;2024-02-23T07:48:47;46.73;;;35.87;;
6193;SDS011;3130;41.564;23.280;2024-02-23T07:51:15;38.50;;;32.53;;
6193;SDS011;3130;41.564;23.280;2024-02-23T07:53:42;34.83;;;28.03;;
6193;SDS011;3130;41.564;23.280;2024-02-23T07:56:12;34.63;;;27.90;;
6193;SDS011;3130;41.564;23.280;2024-02-23T07:58:40;30.80;;;27.42;;
6193;SDS011;3130;41.564;23.280;2024-02-23T08:01:07;37.47;;;32.20;;
6193;SDS011;3130;41.564;23.280;2024-02-23T08:03:34;21.55;;;18.25;;
6193;SDS011;3130;41.564;23.280;2024-02-23T08:06:07;23.45;;;19.42;;
6193;SDS011;3130;41.564;23.280;2024-02-23T08:08:35;24.27;;;21.00;;
6193;SDS011;3130;41.564;23.280;2024-02-23T08:11:03;28.83;;;22.67;;
6193;SDS011;3130;41.564;23.280;2024-02-23T08:13:30;28.17;;;23.33;;
6193;SDS011;3130;41.564;23.280;2024-02-23T08:15:57;20.35;;;16.98;;
6193;SDS011;3130;41.564;23.280;2024-02-23T08:18:25;20.35;;;18.15;;
6193;SDS011;3130;41.564;23.280;2024-02-23T08:20:52;20.73;;;17.83;;
6193;SDS011;3130;41.564;23.280;2024-02-23T08:23:21;18.50;;;15.95;;
6193;SDS011;3130;41.564;23.280;2024-02-23T08:25:48;16.75;;;14.10;;
6193;SDS011;3130;41.564;23.280;2024-02-23T08:28:15;17.67;;;14.85;;
6193;SDS011;3130;41.564;23.280;2024-02-23T08:30:43;16.88;;;15.05;;
6193;SDS011;3130;41.564;23.280;2024-02-23T08:33:11;15.55;;;13.93;;
6193;SDS011;3130;41.564;23.280;2024-02-23T08:35:38;15.98;;;14.32;;
6193;SDS011;3130;41.564;23.280;2024-02-23T08:38:05;15.40;;;13.90;;
6193;SDS011;3130;41.564;23.280;2024-02-23T08:40:34;16.17;;;14.45;;
6193;SDS011;3130;41.564;23.280;2024-02-23T08:43:01;17.20;;;13.68;;
6193;SDS011;3130;41.564;23.280;2024-02-23T08:45:28;14.52;;;12.98;;
6193;SDS011;3130;41.564;23.280;2024-02-23T08:47:58;13.82;;;12.32;;
6193;SDS011;3130;41.564;23.280;2024-02-23T08:53:10;15.85;;;13.80;;
6193;SDS011;3130;41.564;23.280;2024-02-23T08:55:39;16.67;;;13.53;;
6193;SDS011;3130;41.564;23.280;2024-02-23T08:58:05;14.07;;;12.37;;
6193;SDS011;3130;41.564;23.280;2024-02-23T09:00:32;17.17;;;13.63;;
6193;SDS011;3130;41.564;23.280;2024-02-23T09:03:04;15.90;;;12.83;;
6193;SDS011;3130;41.564;23.280;2024-02-23T09:05:31;16.10;;;13.73;;
6193;SDS011;3130;41.564;23.280;2024-02-23T09:07:59;16.60;;;13.53;;
6193;SDS011;3130;41.564;23.280;2024-02-23T09:10:26;16.23;;;12.83;;
6193;SDS011;3130;41.564;23.280;2024-02-23T09:12:55;16.57;;;12.97;;
6193;SDS011;3130;41.564;23.280;2024-02-23T09:15:25;13.50;;;11.40;;
6193;SDS011;3130;41.564;23.280;2024-02-23T09:17:54;16.53;;;13.60;;
6193;SDS011;3130;41.564;23.280;2024-02-23T09:20:21;15.47;;;12.70;;
6193;SDS011;3130;41.564;23.280;2024-02-23T09:22:48;14.13;;;12.07;;
6193;SDS011;3130;41.564;23.280;2024-02-23T09:25:18;13.40;;;10.93;;
6193;SDS011;3130;41.564;23.280;2024-02-23T09:27:46;13.50;;;9.80;;
6193;SDS011;3130;41.564;23.280;2024-02-23T09:30:15;13.10;;;11.60;;
6193;SDS011;3130;41.564;23.280;2024-02-23T09:32:42;14.83;;;12.07;;
6193;SDS011;3130;41.564;23.280;2024-02-23T09:35:09;11.17;;;10.00;;
6193;SDS011;3130;41.564;23.280;2024-02-23T09:37:36;14.33;;;11.00;;
6193;SDS011;3130;41.564;23.280;2024-02-23T09:40:04;13.03;;;10.47;;
6193;SDS011;3130;41.564;23.280;2024-02-23T09:42:31;13.40;;;10.43;;
6193;SDS011;3130;41.564;23.280;2024-02-23T09:44:59;17.20;;;14.07;;
6193;SDS011;3130;41.564;23.280;2024-02-23T09:47:28;11.77;;;9.53;;
6193;SDS011;3130;41.564;23.280;2024-02-23T09:49:55;10.30;;;8.53;;
6193;SDS011;3130;41.564;23.280;2024-02-23T09:52:22;12.60;;;9.53;;
6193;SDS011;3130;41.564;23.280;2024-02-23T09:54:49;11.33;;;8.90;;
6193;SDS011;3130;41.564;23.280;2024-02-23T09:57:16;10.07;;;8.40;;
6193;SDS011;3130;41.564;23.280;2024-02-23T09:59:44;11.83;;;9.03;;
6193;SDS011;3130;41.564;23.280;2024-02-23T10:02:13;16.87;;;10.37;;
6193;SDS011;3130;41.564;23.280;2024-02-23T10:04:43;12.83;;;9.43;;
6193;SDS011;3130;41.564;23.280;2024-02-23T10:07:10;11.77;;;9.07;;
6193;SDS011;3130;41.564;23.280;2024-02-23T10:09:37;12.73;;;9.73;;
6193;SDS011;3130;41.564;23.280;2024-02-23T10:12:05;13.47;;;10.50;;
6193;SDS011;3130;41.564;23.280;2024-02-23T10:14:35;11.83;;;9.67;;
6193;SDS011;3130;41.564;23.280;2024-02-23T10:17:06;13.43;;;10.50;;
6193;SDS011;3130;41.564;23.280;2024-02-23T10:19:33;15.20;;;12.07;;
6193;SDS011;3130;41.564;23.280;2024-02-23T10:22:02;13.93;;;10.83;;
6193;SDS011;3130;41.564;23.280;2024-02-23T10:24:29;14.83;;;11.80;;
6193;SDS011;3130;41.564;23.280;2024-02-23T10:26:57;13.63;;;10.97;;
6193;SDS011;3130;41.564;23.280;2024-02-23T10:29:25;12.27;;;10.27;;
6193;SDS011;3130;41.564;23.280;2024-02-23T10:31:52;11.80;;;8.63;;
6193;SDS011;3130;41.564;23.280;2024-02-23T10:34:23;12.07;;;9.47;;
6193;SDS011;3130;41.564;23.280;2024-02-23T10:36:50;18.13;;;10.37;;
6193;SDS011;3130;41.564;23.280;2024-02-23T10:39:20;11.37;;;9.33;;
6193;SDS011;3130;41.564;23.280;2024-02-23T10:41:53;12.93;;;9.27;;
6193;SDS011;3130;41.564;23.280;2024-02-23T10:44:22;11.00;;;9.20;;
6193;SDS011;3130;41.564;23.280;2024-02-23T10:46:50;9.57;;;7.63;;
6193;SDS011;3130;41.564;23.280;2024-02-23T10:49:17;9.63;;;7.97;;
6193;SDS011;3130;41.564;23.280;2024-02-23T10:51:47;10.40;;;8.00;;
6193;SDS011;3130;41.564;23.280;2024-02-23T10:54:14;12.47;;;8.17;;
6193;SDS011;3130;41.564;23.280;2024-02-23T10:56:48;9.73;;;7.40;;
6193;SDS011;3130;41.564;23.280;2024-02-23T10:59:15;9.03;;;8.10;;
6193;SDS011;3130;41.564;23.280;2024-02-23T11:01:44;8.27;;;6.87;;
6193;SDS011;3130;41.564;23.280;2024-02-23T11:04:11;11.40;;;9.10;;
6193;SDS011;3130;41.564;23.280;2024-02-23T11:06:38;9.27;;;7.17;;
6193;SDS011;3130;41.564;23.280;2024-02-23T11:09:06;11.10;;;7.60;;
6193;SDS011;3130;41.564;23.280;2024-02-23T11:11:34;7.20;;;6.33;;
6193;SDS011;3130;41.564;23.280;2024-02-23T11:14:06;7.60;;;6.63;;
6193;SDS011;3130;41.564;23.280;2024-02-23T11:16:34;9.77;;;7.70;;
6193;SDS011;3130;41.564;23.280;2024-02-23T11:19:05;9.00;;;6.77;;
6193;SDS011;3130;41.564;23.280;2024-02-23T11:21:34;9.17;;;7.20;;
6193;SDS011;3130;41.564;23.280;2024-02-23T11:24:02;11.30;;;6.93;;
6193;SDS011;3130;41.564;23.280;2024-02-23T11:26:29;6.97;;;5.97;;
6193;SDS011;3130;41.564;23.280;2024-02-23T11:28:57;8.07;;;6.50;;
6193;SDS011;3130;41.564;23.280;2024-02-23T11:31:29;7.70;;;6.20;;
6193;SDS011;3130;41.564;23.280;2024-02-23T11:33:56;11.03;;;6.50;;
6193;SDS011;3130;41.564;23.280;2024-02-23T11:36:24;6.37;;;5.37;;
6193;SDS011;3130;41.564;23.280;2024-02-23T11:38:52;6.17;;;5.23;;
6193;SDS011;3130;41.564;23.280;2024-02-23T11:41:19;8.47;;;6.30;;
6193;SDS011;3130;41.564;23.280;2024-02-23T11:43:46;5.53;;;4.60;;
6193;SDS011;3130;41.564;23.280;2024-02-23T11:46:14;6.33;;;5.13;;
6193;SDS011;3130;41.564;23.280;2024-02-23T11:48:43;10.53;;;5.90;;
6193;SDS011;3130;41.564;23.280;2024-02-23T11:51:12;7.43;;;5.07;;
6193;SDS011;3130;41.564;23.280;2024-02-23T11:53:39;5.93;;;5.27;;
6193;SDS011;3130;41.564;23.280;2024-02-23T11:56:06;6.20;;;5.13;;
6193;SDS011;3130;41.564;23.280;2024-02-23T11:58:33;7.10;;;5.30;;
6193;SDS011;3130;41.564;23.280;2024-02-23T12:01:01;9.37;;;6.50;;
6193;SDS011;3130;41.564;23.280;2024-02-23T12:03:28;5.80;;;5.03;;
6193;SDS011;3130;41.564;23.280;2024-02-23T12:05:57;5.77;;;5.10;;
6193;SDS011;3130;41.564;23.280;2024-02-23T12:08:24;7.63;;;6.20;;
6193;SDS011;3130;41.564;23.280;2024-02-23T12:10:53;8.00;;;5.47;;
6193;SDS011;3130;41.564;23.280;2024-02-23T12:13:20;6.83;;;5.53;;
6193;SDS011;3130;41.564;23.280;2024-02-23T12:15:48;11.03;;;7.50;;
6193;SDS011;3130;41.564;23.280;2024-02-23T12:18:15;9.77;;;8.43;;
6193;SDS011;3130;41.564;23.280;2024-02-23T12:20:43;8.10;;;6.67;;
6193;SDS011;3130;41.564;23.280;2024-02-23T12:23:15;7.80;;;5.47;;
6193;SDS011;3130;41.564;23.280;2024-02-23T12:25:51;6.30;;;5.60;;
6193;SDS011;3130;41.564;23.280;2024-02-23T12:28:19;7.13;;;5.70;;
6193;SDS011;3130;41.564;23.280;2024-02-23T12:30:46;6.93;;;6.00;;
6193;SDS011;3130;41.564;23.280;2024-02-23T12:33:15;5.43;;;4.93;;
6193;SDS011;3130;41.564;23.280;2024-02-23T12:35:42;10.10;;;6.83;;
6193;SDS011;3130;41.564;23.280;2024-02-23T12:38:09;7.20;;;6.50;;
6193;SDS011;3130;41.564;23.280;2024-02-23T12:40:40;7.43;;;6.50;;
6193;SDS011;3130;41.564;23.280;2024-02-23T12:43:07;8.10;;;6.40;;
6193;SDS011;3130;41.564;23.280;2024-02-23T12:45:34;11.00;;;7.17;;
6193;SDS011;3130;41.564;23.280;2024-02-23T12:48:01;8.50;;;7.60;;
6193;SDS011;3130;41.564;23.280;2024-02-23T12:50:29;12.90;;;10.23;;
6193;SDS011;3130;41.564;23.280;2024-02-23T12:52:56;11.53;;;10.33;;
6193;SDS011;3130;41.564;23.280;2024-02-23T12:55:23;15.47;;;12.77;;
6193;SDS011;3130;41.564;23.280;2024-02-23T12:57:52;20.50;;;18.17;;
6193;SDS011;3130;41.564;23.280;2024-02-23T13:00:19;20.30;;;17.87;;
6193;SDS011;3130;41.564;23.280;2024-02-23T13:02:50;24.60;;;20.90;;
6193;SDS011;3130;41.564;23.280;2024-02-23T13:05:17;21.07;;;18.80;;
6193;SDS011;3130;41.564;23.280;2024-02-23T13:07:44;25.23;;;21.20;;
6193;SDS011;3130;41.564;23.280;2024-02-23T13:10:12;23.27;;;18.40;;
6193;SDS011;3130;41.564;23.280;2024-02-23T13:12:40;17.63;;;14.73;;
6193;SDS011;3130;41.564;23.280;2024-02-23T13:15:09;14.90;;;12.90;;
6193;SDS011;3130;41.564;23.280;2024-02-23T13:17:36;14.47;;;12.20;;
6193;SDS011;3130;41.564;23.280;2024-02-23T13:20:04;16.17;;;13.10;;
6193;SDS011;3130;41.564;23.280;2024-02-23T13:22:31;16.13;;;12.93;;
6193;SDS011;3130;41.564;23.280;2024-02-23T13:24:59;16.17;;;12.97;;
6193;SDS011;3130;41.564;23.280;2024-02-23T13:27:26;14.17;;;11.60;;
6193;SDS011;3130;41.564;23.280;2024-02-23T13:29:55;13.37;;;10.83;;
6193;SDS011;3130;41.564;23.280;2024-02-23T13:32:24;12.37;;;9.90;;
6193;SDS011;3130;41.564;23.280;2024-02-23T13:34:52;12.80;;;8.67;;
6193;SDS011;3130;41.564;23.280;2024-02-23T13:37:20;10.80;;;7.77;;
6193;SDS011;3130;41.564;23.280;2024-02-23T13:39:47;11.53;;;9.50;;
6193;SDS011;3130;41.564;23.280;2024-02-23T13:42:14;16.43;;;11.00;;
6193;SDS011;3130;41.564;23.280;2024-02-23T13:44:41;12.30;;;10.43;;
6193;SDS011;3130;41.564;23.280;2024-02-23T13:47:08;15.13;;;11.90;;
6193;SDS011;3130;41.564;23.280;2024-02-23T13:49:36;14.77;;;10.00;;
6193;SDS011;3130;41.564;23.280;2024-02-23T13:52:03;13.20;;;10.60;;
6193;SDS011;3130;41.564;23.280;2024-02-23T13:54:31;13.73;;;11.77;;
6193;SDS011;3130;41.564;23.280;2024-02-23T13:56:58;10.63;;;9.33;;
6193;SDS011;3130;41.564;23.280;2024-02-23T13:59:25;14.80;;;12.10;;
6193;SDS011;3130;41.564;23.280;2024-02-23T14:01:51;13.73;;;11.50;;
6193;SDS011;3130;41.564;23.280;2024-02-23T14:04:18;14.67;;;11.80;;
6193;SDS011;3130;41.564;23.280;2024-02-23T14:06:47;15.33;;;12.07;;
6193;SDS011;3130;41.564;23.280;2024-02-23T14:09:14;15.57;;;11.77;;
6193;SDS011;3130;41.564;23.280;2024-02-23T14:11:41;15.50;;;11.73;;
6193;SDS011;3130;41.564;23.280;2024-02-23T14:14:10;13.83;;;9.87;;
6193;SDS011;3130;41.564;23.280;2024-02-23T14:16:37;14.17;;;10.93;;
6193;SDS011;3130;41.564;23.280;2024-02-23T14:19:04;13.87;;;11.23;;
6193;SDS011;3130;41.564;23.280;2024-02-23T14:21:31;12.70;;;11.10;;
6193;SDS011;3130;41.564;23.280;2024-02-23T14:24:00;13.97;;;10.33;;
6193;SDS011;3130;41.564;23.280;2024-02-23T14:26:27;14.83;;;10.27;;
6193;SDS011;3130;41.564;23.280;2024-02-23T14:28:54;10.43;;;8.47;;
6193;SDS011;3130;41.564;23.280;2024-02-23T14:31:21;11.17;;;8.30;;
6193;SDS011;3130;41.564;23.280;2024-02-23T14:33:48;11.00;;;8.20;;
6193;SDS011;3130;41.564;23.280;2024-02-23T14:36:16;8.77;;;7.27;;
6193;SDS011;3130;41.564;23.280;2024-02-23T14:38:43;9.87;;;8.57;;
6193;SDS011;3130;41.564;23.280;2024-02-23T14:41:11;9.53;;;7.93;;
6193;SDS011;3130;41.564;23.280;2024-02-23T14:43:38;10.77;;;8.30;;